sensor_id;sensor_type;location;lat;lon;timestamp;temperature;humidity
39675;DHT22;27790;50.840;4.386;2022-09-01T00:01:14;20.20;72.10
39675;DHT22;27790;50.840;4.386;2022-09-01T00:03:48;20.20;72.00
39675;DHT22;27790;50.840;4.386;2022-09-01T00:06:20;20.20;72.20
39675;DHT22;27790;50.840;4.386;2022-09-01T00:08:52;20.20;71.90
39675;DHT22;27790;50.840;4.386;2022-09-01T00:11:18;20.10;72.10
39675;DHT22;27790;50.840;4.386;2022-09-01T00:13:44;20.00;72.20
39675;DHT22;27790;50.840;4.386;2022-09-01T00:16:10;20.00;72.20
39675;DHT22;27790;50.840;4.386;2022-09-01T00:18:43;20.00;72.00
39675;DHT22;27790;50.840;4.386;2022-09-01T00:21:11;20.00;72.10
39675;DHT22;27790;50.840;4.386;2022-09-01T00:23:37;19.90;72.10
39675;DHT22;27790;50.840;4.386;2022-09-01T00:26:03;19.90;72.20
39675;DHT22;27790;50.840;4.386;2022-09-01T00:28:32;19.90;72.10
39675;DHT22;27790;50.840;4.386;2022-09-01T00:30:59;19.90;72.30
39675;DHT22;27790;50.840;4.386;2022-09-01T00:33:25;19.90;72.20
39675;DHT22;27790;50.840;4.386;2022-09-01T00:35:51;19.80;72.20
39675;DHT22;27790;50.840;4.386;2022-09-01T00:38:16;19.80;72.20
39675;DHT22;27790;50.840;4.386;2022-09-01T00:40:42;19.80;72.20
39675;DHT22;27790;50.840;4.386;2022-09-01T00:43:13;19.80;72.00
39675;DHT22;27790;50.840;4.386;2022-09-01T00:45:39;19.80;71.60
39675;DHT22;27790;50.840;4.386;2022-09-01T00:48:05;19.80;71.70
39675;DHT22;27790;50.840;4.386;2022-09-01T00:50:31;19.80;71.60
39675;DHT22;27790;50.840;4.386;2022-09-01T00:52:57;19.70;71.50
39675;DHT22;27790;50.840;4.386;2022-09-01T00:55:30;19.70;71.70
39675;DHT22;27790;50.840;4.386;2022-09-01T00:57:58;19.60;71.70
39675;DHT22;27790;50.840;4.386;2022-09-01T01:00:28;19.60;71.90
39675;DHT22;27790;50.840;4.386;2022-09-01T01:02:54;19.60;71.80
39675;DHT22;27790;50.840;4.386;2022-09-01T01:05:48;19.60;71.80
39675;DHT22;27790;50.840;4.386;2022-09-01T01:08:21;19.60;71.70
39675;DHT22;27790;50.840;4.386;2022-09-01T01:10:55;19.60;71.50
39675;DHT22;27790;50.840;4.386;2022-09-01T01:13:21;19.60;71.30
39675;DHT22;27790;50.840;4.386;2022-09-01T01:15:48;19.60;71.20
39675;DHT22;27790;50.840;4.386;2022-09-01T01:18:14;19.60;71.20
39675;DHT22;27790;50.840;4.386;2022-09-01T01:20:41;19.50;71.10
39675;DHT22;27790;50.840;4.386;2022-09-01T01:25:58;19.50;71.00
39675;DHT22;27790;50.840;4.386;2022-09-01T01:28:27;19.50;70.80
39675;DHT22;27790;50.840;4.386;2022-09-01T01:31:13;19.50;70.70
39675;DHT22;27790;50.840;4.386;2022-09-01T01:33:51;19.40;70.50
39675;DHT22;27790;50.840;4.386;2022-09-01T01:38:58;19.40;70.40
39675;DHT22;27790;50.840;4.386;2022-09-01T01:41:27;19.40;70.50
39675;DHT22;27790;50.840;4.386;2022-09-01T01:43:55;19.40;70.40
39675;DHT22;27790;50.840;4.386;2022-09-01T01:46:22;19.30;70.70
39675;DHT22;27790;50.840;4.386;2022-09-01T01:48:51;19.30;70.90
39675;DHT22;27790;50.840;4.386;2022-09-01T01:51:20;19.30;70.90
39675;DHT22;27790;50.840;4.386;2022-09-01T01:53:49;19.30;71.30
39675;DHT22;27790;50.840;4.386;2022-09-01T01:56:18;19.30;70.80
39675;DHT22;27790;50.840;4.386;2022-09-01T01:58:44;19.20;70.90
39675;DHT22;27790;50.840;4.386;2022-09-01T02:01:09;19.20;70.70
39675;DHT22;27790;50.840;4.386;2022-09-01T02:03:38;19.20;70.60
39675;DHT22;27790;50.840;4.386;2022-09-01T02:06:05;19.20;70.70
39675;DHT22;27790;50.840;4.386;2022-09-01T02:08:33;19.20;70.60
39675;DHT22;27790;50.840;4.386;2022-09-01T02:11:01;19.30;70.70
39675;DHT22;27790;50.840;4.386;2022-09-01T02:13:27;19.30;70.40
39675;DHT22;27790;50.840;4.386;2022-09-01T02:15:56;19.40;70.50
39675;DHT22;27790;50.840;4.386;2022-09-01T02:18:30;19.40;70.20
39675;DHT22;27790;50.840;4.386;2022-09-01T02:20:58;19.40;70.00
39675;DHT22;27790;50.840;4.386;2022-09-01T02:23:25;19.50;70.00
39675;DHT22;27790;50.840;4.386;2022-09-01T02:25:54;19.50;69.60
39675;DHT22;27790;50.840;4.386;2022-09-01T02:28:21;19.50;69.60
39675;DHT22;27790;50.840;4.386;2022-09-01T02:30:50;19.50;69.40
39675;DHT22;27790;50.840;4.386;2022-09-01T02:33:16;19.50;68.90
39675;DHT22;27790;50.840;4.386;2022-09-01T02:35:54;19.40;69.20
39675;DHT22;27790;50.840;4.386;2022-09-01T02:38:21;19.40;69.70
39675;DHT22;27790;50.840;4.386;2022-09-01T02:40:57;19.40;69.70
39675;DHT22;27790;50.840;4.386;2022-09-01T02:43:24;19.40;68.80
39675;DHT22;27790;50.840;4.386;2022-09-01T02:45:54;19.40;69.00
39675;DHT22;27790;50.840;4.386;2022-09-01T02:48:37;19.40;69.30
39675;DHT22;27790;50.840;4.386;2022-09-01T02:51:06;19.30;69.00
39675;DHT22;27790;50.840;4.386;2022-09-01T02:53:33;19.40;69.10
39675;DHT22;27790;50.840;4.386;2022-09-01T02:56:01;19.30;69.20
39675;DHT22;27790;50.840;4.386;2022-09-01T02:58:29;19.20;69.40
39675;DHT22;27790;50.840;4.386;2022-09-01T03:03:50;19.10;69.70
39675;DHT22;27790;50.840;4.386;2022-09-01T03:06:17;19.10;69.70
39675;DHT22;27790;50.840;4.386;2022-09-01T03:08:44;19.00;69.90
39675;DHT22;27790;50.840;4.386;2022-09-01T03:11:10;19.00;70.10
39675;DHT22;27790;50.840;4.386;2022-09-01T03:13:38;19.00;70.30
39675;DHT22;27790;50.840;4.386;2022-09-01T03:16:05;18.90;70.20
39675;DHT22;27790;50.840;4.386;2022-09-01T03:18:32;18.90;70.30
39675;DHT22;27790;50.840;4.386;2022-09-01T03:20:58;18.90;70.40
39675;DHT22;27790;50.840;4.386;2022-09-01T03:23:23;18.80;70.70
39675;DHT22;27790;50.840;4.386;2022-09-01T03:25:52;18.80;70.90
39675;DHT22;27790;50.840;4.386;2022-09-01T03:28:18;18.60;71.20
39675;DHT22;27790;50.840;4.386;2022-09-01T03:30:46;18.60;71.60
39675;DHT22;27790;50.840;4.386;2022-09-01T03:33:13;18.50;71.60
39675;DHT22;27790;50.840;4.386;2022-09-01T03:35:41;18.50;71.60
39675;DHT22;27790;50.840;4.386;2022-09-01T03:38:07;18.50;71.60
39675;DHT22;27790;50.840;4.386;2022-09-01T03:40:34;18.50;71.60
39675;DHT22;27790;50.840;4.386;2022-09-01T03:43:07;18.50;71.60
39675;DHT22;27790;50.840;4.386;2022-09-01T03:45:37;18.40;71.80
39675;DHT22;27790;50.840;4.386;2022-09-01T03:48:04;18.30;72.00
39675;DHT22;27790;50.840;4.386;2022-09-01T03:50:36;18.40;72.10
39675;DHT22;27790;50.840;4.386;2022-09-01T03:53:06;18.30;72.20
39675;DHT22;27790;50.840;4.386;2022-09-01T03:55:34;18.30;72.30
39675;DHT22;27790;50.840;4.386;2022-09-01T03:58:03;18.30;72.20
39675;DHT22;27790;50.840;4.386;2022-09-01T04:00:33;18.30;72.30
39675;DHT22;27790;50.840;4.386;2022-09-01T04:03:02;18.30;72.60
39675;DHT22;27790;50.840;4.386;2022-09-01T04:05:30;18.20;72.80
39675;DHT22;27790;50.840;4.386;2022-09-01T04:08:00;18.20;72.60
39675;DHT22;27790;50.840;4.386;2022-09-01T04:10:34;18.20;72.80
39675;DHT22;27790;50.840;4.386;2022-09-01T04:13:03;18.20;72.80
39675;DHT22;27790;50.840;4.386;2022-09-01T04:15:30;18.20;72.80
39675;DHT22;27790;50.840;4.386;2022-09-01T04:17:57;18.20;72.90
39675;DHT22;27790;50.840;4.386;2022-09-01T04:20:37;18.20;73.00
39675;DHT22;27790;50.840;4.386;2022-09-01T04:23:19;18.10;73.10
39675;DHT22;27790;50.840;4.386;2022-09-01T04:25:48;18.10;73.10
39675;DHT22;27790;50.840;4.386;2022-09-01T04:28:18;18.10;73.40
39675;DHT22;27790;50.840;4.386;2022-09-01T04:30:51;18.00;73.40
39675;DHT22;27790;50.840;4.386;2022-09-01T04:33:18;18.10;73.20
39675;DHT22;27790;50.840;4.386;2022-09-01T04:35:43;18.10;73.20
39675;DHT22;27790;50.840;4.386;2022-09-01T04:38:09;18.00;73.50
39675;DHT22;27790;50.840;4.386;2022-09-01T04:40:38;18.00;73.90
39675;DHT22;27790;50.840;4.386;2022-09-01T04:43:05;17.90;73.90
39675;DHT22;27790;50.840;4.386;2022-09-01T04:45:33;17.90;73.80
39675;DHT22;27790;50.840;4.386;2022-09-01T04:48:03;17.90;73.90
39675;DHT22;27790;50.840;4.386;2022-09-01T04:50:29;17.80;74.00
39675;DHT22;27790;50.840;4.386;2022-09-01T04:52:59;17.90;74.00
39675;DHT22;27790;50.840;4.386;2022-09-01T04:55:26;17.80;74.10
39675;DHT22;27790;50.840;4.386;2022-09-01T04:57:56;17.70;74.30
39675;DHT22;27790;50.840;4.386;2022-09-01T05:00:24;17.70;74.40
39675;DHT22;27790;50.840;4.386;2022-09-01T05:02:59;17.70;74.70
39675;DHT22;27790;50.840;4.386;2022-09-01T05:05:36;17.70;74.60
39675;DHT22;27790;50.840;4.386;2022-09-01T05:08:05;17.60;74.60
39675;DHT22;27790;50.840;4.386;2022-09-01T05:10:31;17.60;74.80
39675;DHT22;27790;50.840;4.386;2022-09-01T05:13:02;17.60;74.80
39675;DHT22;27790;50.840;4.386;2022-09-01T05:15:38;17.60;74.70
39675;DHT22;27790;50.840;4.386;2022-09-01T05:18:04;17.60;75.00
39675;DHT22;27790;50.840;4.386;2022-09-01T05:20:39;17.60;75.00
39675;DHT22;27790;50.840;4.386;2022-09-01T05:23:07;17.60;75.00
39675;DHT22;27790;50.840;4.386;2022-09-01T05:25:41;17.60;74.90
39675;DHT22;27790;50.840;4.386;2022-09-01T05:28:09;17.70;75.00
39675;DHT22;27790;50.840;4.386;2022-09-01T05:30:39;17.70;75.00
39675;DHT22;27790;50.840;4.386;2022-09-01T05:33:06;17.70;75.10
39675;DHT22;27790;50.840;4.386;2022-09-01T05:35:36;17.70;75.00
39675;DHT22;27790;50.840;4.386;2022-09-01T05:38:03;17.80;75.20
39675;DHT22;27790;50.840;4.386;2022-09-01T05:40:29;17.80;75.00
39675;DHT22;27790;50.840;4.386;2022-09-01T05:42:54;17.80;75.00
39675;DHT22;27790;50.840;4.386;2022-09-01T05:45:20;17.90;75.00
39675;DHT22;27790;50.840;4.386;2022-09-01T05:47:47;17.90;75.00
39675;DHT22;27790;50.840;4.386;2022-09-01T05:50:14;18.00;74.80
39675;DHT22;27790;50.840;4.386;2022-09-01T05:52:44;18.00;76.80
39675;DHT22;27790;50.840;4.386;2022-09-01T05:55:12;18.30;74.50
39675;DHT22;27790;50.840;4.386;2022-09-01T05:57:40;18.30;74.30
39675;DHT22;27790;50.840;4.386;2022-09-01T06:00:08;18.20;74.40
39675;DHT22;27790;50.840;4.386;2022-09-01T06:02:37;18.30;74.20
39675;DHT22;27790;50.840;4.386;2022-09-01T06:05:05;18.20;74.30
39675;DHT22;27790;50.840;4.386;2022-09-01T06:07:30;18.10;74.90
39675;DHT22;27790;50.840;4.386;2022-09-01T06:09:56;18.10;74.90
39675;DHT22;27790;50.840;4.386;2022-09-01T06:12:22;18.20;75.20
39675;DHT22;27790;50.840;4.386;2022-09-01T06:14:50;18.20;75.10
39675;DHT22;27790;50.840;4.386;2022-09-01T06:17:18;18.40;74.60
39675;DHT22;27790;50.840;4.386;2022-09-01T06:19:49;18.40;74.60
39675;DHT22;27790;50.840;4.386;2022-09-01T06:22:17;18.40;74.40
39675;DHT22;27790;50.840;4.386;2022-09-01T06:24:45;18.40;74.70
39675;DHT22;27790;50.840;4.386;2022-09-01T06:27:12;18.30;75.20
39675;DHT22;27790;50.840;4.386;2022-09-01T06:29:42;18.40;75.60
39675;DHT22;27790;50.840;4.386;2022-09-01T06:32:10;18.40;75.40
39675;DHT22;27790;50.840;4.386;2022-09-01T06:34:43;18.40;75.20
39675;DHT22;27790;50.840;4.386;2022-09-01T06:37:10;18.50;75.60
39675;DHT22;27790;50.840;4.386;2022-09-01T06:39:36;18.40;75.10
39675;DHT22;27790;50.840;4.386;2022-09-01T06:42:02;18.40;75.70
39675;DHT22;27790;50.840;4.386;2022-09-01T06:44:27;18.50;75.70
39675;DHT22;27790;50.840;4.386;2022-09-01T06:46:56;18.60;75.80
39675;DHT22;27790;50.840;4.386;2022-09-01T06:49:24;18.60;75.70
39675;DHT22;27790;50.840;4.386;2022-09-01T06:51:58;18.70;75.60
39675;DHT22;27790;50.840;4.386;2022-09-01T06:54:24;18.80;75.50
39675;DHT22;27790;50.840;4.386;2022-09-01T06:56:50;18.90;75.60
39675;DHT22;27790;50.840;4.386;2022-09-01T06:59:17;18.90;75.40
39675;DHT22;27790;50.840;4.386;2022-09-01T07:01:42;18.90;75.60
39675;DHT22;27790;50.840;4.386;2022-09-01T07:04:08;19.10;75.30
39675;DHT22;27790;50.840;4.386;2022-09-01T07:06:34;19.30;75.00
39675;DHT22;27790;50.840;4.386;2022-09-01T07:09:01;19.50;74.60
39675;DHT22;27790;50.840;4.386;2022-09-01T07:11:31;19.80;73.70
39675;DHT22;27790;50.840;4.386;2022-09-01T07:14:00;20.10;72.90
39675;DHT22;27790;50.840;4.386;2022-09-01T07:16:31;20.50;72.40
39675;DHT22;27790;50.840;4.386;2022-09-01T07:19:00;21.10;70.70
39675;DHT22;27790;50.840;4.386;2022-09-01T07:21:28;21.50;69.30
39675;DHT22;27790;50.840;4.386;2022-09-01T07:23:56;21.90;69.80
39675;DHT22;27790;50.840;4.386;2022-09-01T07:26:24;22.30;67.40
39675;DHT22;27790;50.840;4.386;2022-09-01T07:28:50;22.60;66.70
39675;DHT22;27790;50.840;4.386;2022-09-01T07:31:22;23.10;65.30
39675;DHT22;27790;50.840;4.386;2022-09-01T07:33:50;23.20;64.80
39675;DHT22;27790;50.840;4.386;2022-09-01T07:36:18;23.40;64.50
39675;DHT22;27790;50.840;4.386;2022-09-01T07:38:44;23.70;63.70
39675;DHT22;27790;50.840;4.386;2022-09-01T07:41:11;23.80;63.60
39675;DHT22;27790;50.840;4.386;2022-09-01T07:43:40;23.80;63.70
39675;DHT22;27790;50.840;4.386;2022-09-01T07:46:09;24.00;63.90
39675;DHT22;27790;50.840;4.386;2022-09-01T07:48:35;24.30;62.90
39675;DHT22;27790;50.840;4.386;2022-09-01T07:51:02;24.40;62.20
39675;DHT22;27790;50.840;4.386;2022-09-01T07:53:31;24.40;62.10
39675;DHT22;27790;50.840;4.386;2022-09-01T07:55:59;24.60;62.20
39675;DHT22;27790;50.840;4.386;2022-09-01T07:58:31;24.60;62.00
39675;DHT22;27790;50.840;4.386;2022-09-01T08:00:58;24.60;61.70
39675;DHT22;27790;50.840;4.386;2022-09-01T08:03:28;25.10;60.80
39675;DHT22;27790;50.840;4.386;2022-09-01T08:05:54;24.80;60.80
39675;DHT22;27790;50.840;4.386;2022-09-01T08:08:25;24.50;61.70
39675;DHT22;27790;50.840;4.386;2022-09-01T08:10:51;24.80;61.60
39675;DHT22;27790;50.840;4.386;2022-09-01T08:13:17;24.60;61.60
39675;DHT22;27790;50.840;4.386;2022-09-01T08:15:42;24.40;62.20
39675;DHT22;27790;50.840;4.386;2022-09-01T08:18:08;24.60;62.50
39675;DHT22;27790;50.840;4.386;2022-09-01T08:20:37;25.00;61.00
39675;DHT22;27790;50.840;4.386;2022-09-01T08:23:05;25.30;60.80
39675;DHT22;27790;50.840;4.386;2022-09-01T08:25:32;25.90;59.20
39675;DHT22;27790;50.840;4.386;2022-09-01T08:27:58;26.40;59.40
39675;DHT22;27790;50.840;4.386;2022-09-01T08:30:25;26.80;58.20
39675;DHT22;27790;50.840;4.386;2022-09-01T08:32:52;26.90;57.20
39675;DHT22;27790;50.840;4.386;2022-09-01T08:35:17;26.80;57.10
39675;DHT22;27790;50.840;4.386;2022-09-01T08:37:43;26.60;57.50
39675;DHT22;27790;50.840;4.386;2022-09-01T08:40:13;26.90;57.30
39675;DHT22;27790;50.840;4.386;2022-09-01T08:47:53;27.50;56.10
39675;DHT22;27790;50.840;4.386;2022-09-01T08:50:20;27.40;55.60
39675;DHT22;27790;50.840;4.386;2022-09-01T08:55:42;26.80;56.50
39675;DHT22;27790;50.840;4.386;2022-09-01T08:58:10;27.00;56.20
39675;DHT22;27790;50.840;4.386;2022-09-01T09:00:40;27.20;56.00
39675;DHT22;27790;50.840;4.386;2022-09-01T09:03:17;27.40;56.00
39675;DHT22;27790;50.840;4.386;2022-09-01T09:08:48;26.70;57.10
39675;DHT22;27790;50.840;4.386;2022-09-01T09:14:17;26.90;56.20
39675;DHT22;27790;50.840;4.386;2022-09-01T09:16:49;26.30;57.00
39675;DHT22;27790;50.840;4.386;2022-09-01T09:19:25;26.30;57.80
39675;DHT22;27790;50.840;4.386;2022-09-01T09:21:54;26.40;56.90
39675;DHT22;27790;50.840;4.386;2022-09-01T09:24:37;26.00;57.50
39675;DHT22;27790;50.840;4.386;2022-09-01T09:29:51;25.70;58.50
39675;DHT22;27790;50.840;4.386;2022-09-01T09:32:19;25.30;59.30
39675;DHT22;27790;50.840;4.386;2022-09-01T09:34:46;25.00;59.90
39675;DHT22;27790;50.840;4.386;2022-09-01T09:37:20;24.60;60.80
39675;DHT22;27790;50.840;4.386;2022-09-01T09:40:09;24.40;61.10
39675;DHT22;27790;50.840;4.386;2022-09-01T09:42:41;24.50;61.40
39675;DHT22;27790;50.840;4.386;2022-09-01T09:45:24;24.60;60.40
39675;DHT22;27790;50.840;4.386;2022-09-01T09:47:50;24.50;61.50
39675;DHT22;27790;50.840;4.386;2022-09-01T09:50:38;24.30;60.20
39675;DHT22;27790;50.840;4.386;2022-09-01T09:53:21;24.20;61.50
39675;DHT22;27790;50.840;4.386;2022-09-01T09:56:02;24.00;60.80
39675;DHT22;27790;50.840;4.386;2022-09-01T09:58:35;23.90;60.90
39675;DHT22;27790;50.840;4.386;2022-09-01T10:03:52;24.10;61.10
39675;DHT22;27790;50.840;4.386;2022-09-01T10:06:31;24.20;57.50
39675;DHT22;27790;50.840;4.386;2022-09-01T10:08:58;24.20;57.40
39675;DHT22;27790;50.840;4.386;2022-09-01T10:11:38;24.30;57.10
39675;DHT22;27790;50.840;4.386;2022-09-01T10:14:06;24.30;55.90
39675;DHT22;27790;50.840;4.386;2022-09-01T10:16:37;24.20;56.40
39675;DHT22;27790;50.840;4.386;2022-09-01T10:19:05;24.20;57.00
39675;DHT22;27790;50.840;4.386;2022-09-01T10:21:40;24.20;56.80
39675;DHT22;27790;50.840;4.386;2022-09-01T10:26:56;24.40;54.80
39675;DHT22;27790;50.840;4.386;2022-09-01T10:29:31;24.40;55.70
39675;DHT22;27790;50.840;4.386;2022-09-01T10:31:59;24.50;56.00
39675;DHT22;27790;50.840;4.386;2022-09-01T10:34:31;24.60;55.10
39675;DHT22;27790;50.840;4.386;2022-09-01T10:36:57;24.60;54.80
39675;DHT22;27790;50.840;4.386;2022-09-01T10:39:23;24.60;55.00
39675;DHT22;27790;50.840;4.386;2022-09-01T10:41:53;24.40;55.30
39675;DHT22;27790;50.840;4.386;2022-09-01T10:44:37;24.40;54.70
39675;DHT22;27790;50.840;4.386;2022-09-01T10:47:31;24.40;54.40
39675;DHT22;27790;50.840;4.386;2022-09-01T10:55:15;25.00;53.40
39675;DHT22;27790;50.840;4.386;2022-09-01T11:16:23;25.60;52.40
39675;DHT22;27790;50.840;4.386;2022-09-01T11:18:50;25.70;51.70
39675;DHT22;27790;50.840;4.386;2022-09-01T11:21:23;25.50;51.10
39675;DHT22;27790;50.840;4.386;2022-09-01T11:23:49;25.50;51.70
39675;DHT22;27790;50.840;4.386;2022-09-01T11:28:59;25.50;50.90
39675;DHT22;27790;50.840;4.386;2022-09-01T11:31:29;25.50;50.80
39675;DHT22;27790;50.840;4.386;2022-09-01T11:34:13;25.70;50.30
39675;DHT22;27790;50.840;4.386;2022-09-01T11:36:57;25.70;50.10
39675;DHT22;27790;50.840;4.386;2022-09-01T11:39:31;25.70;50.30
39675;DHT22;27790;50.840;4.386;2022-09-01T11:42:06;25.50;50.40
39675;DHT22;27790;50.840;4.386;2022-09-01T11:44:47;25.40;50.60
39675;DHT22;27790;50.840;4.386;2022-09-01T11:47:24;25.50;51.10
39675;DHT22;27790;50.840;4.386;2022-09-01T11:50:36;25.70;50.10
39675;DHT22;27790;50.840;4.386;2022-09-01T11:55:36;25.90;50.20
39675;DHT22;27790;50.840;4.386;2022-09-01T11:58:03;25.90;49.60
39675;DHT22;27790;50.840;4.386;2022-09-01T12:00:32;25.70;50.20
39675;DHT22;27790;50.840;4.386;2022-09-01T12:02:58;25.80;50.10
39675;DHT22;27790;50.840;4.386;2022-09-01T12:05:31;25.90;49.70
39675;DHT22;27790;50.840;4.386;2022-09-01T12:07:59;25.90;49.90
39675;DHT22;27790;50.840;4.386;2022-09-01T12:10:28;25.90;50.40
39675;DHT22;27790;50.840;4.386;2022-09-01T12:13:07;26.00;50.00
39675;DHT22;27790;50.840;4.386;2022-09-01T12:15:34;26.10;50.20
39675;DHT22;27790;50.840;4.386;2022-09-01T12:20:51;26.10;50.20
39675;DHT22;27790;50.840;4.386;2022-09-01T12:26:04;25.90;50.70
39675;DHT22;27790;50.840;4.386;2022-09-01T12:28:32;26.00;50.20
39675;DHT22;27790;50.840;4.386;2022-09-01T12:31:00;25.90;51.20
39675;DHT22;27790;50.840;4.386;2022-09-01T12:33:27;25.80;51.30
39675;DHT22;27790;50.840;4.386;2022-09-01T12:36:19;25.70;51.70
39675;DHT22;27790;50.840;4.386;2022-09-01T12:38:51;25.80;50.90
39675;DHT22;27790;50.840;4.386;2022-09-01T12:46:54;25.90;50.10
39675;DHT22;27790;50.840;4.386;2022-09-01T12:49:46;25.90;50.40
39675;DHT22;27790;50.840;4.386;2022-09-01T12:54:52;25.60;50.20
39675;DHT22;27790;50.840;4.386;2022-09-01T13:02:35;25.50;50.80
39675;DHT22;27790;50.840;4.386;2022-09-01T13:07:43;25.50;50.90
39675;DHT22;27790;50.840;4.386;2022-09-01T13:10:09;25.60;50.40
39675;DHT22;27790;50.840;4.386;2022-09-01T13:12:39;25.70;50.20
39675;DHT22;27790;50.840;4.386;2022-09-01T13:15:06;25.70;51.30
39675;DHT22;27790;50.840;4.386;2022-09-01T13:17:32;25.90;50.90
39675;DHT22;27790;50.840;4.386;2022-09-01T13:19:57;25.90;50.50
39675;DHT22;27790;50.840;4.386;2022-09-01T13:22:23;25.90;50.50
39675;DHT22;27790;50.840;4.386;2022-09-01T13:24:49;25.80;50.60
39675;DHT22;27790;50.840;4.386;2022-09-01T13:27:14;25.80;50.50
39675;DHT22;27790;50.840;4.386;2022-09-01T13:29:40;25.80;50.10
39675;DHT22;27790;50.840;4.386;2022-09-01T13:32:06;25.70;50.40
39675;DHT22;27790;50.840;4.386;2022-09-01T13:34:33;25.50;50.70
39675;DHT22;27790;50.840;4.386;2022-09-01T13:36:59;25.50;50.40
39675;DHT22;27790;50.840;4.386;2022-09-01T13:39:25;25.50;51.00
39675;DHT22;27790;50.840;4.386;2022-09-01T13:41:51;25.50;50.80
39675;DHT22;27790;50.840;4.386;2022-09-01T13:44:17;25.50;50.50
39675;DHT22;27790;50.840;4.386;2022-09-01T13:46:43;25.40;50.60
39675;DHT22;27790;50.840;4.386;2022-09-01T13:49:09;25.40;50.40
39675;DHT22;27790;50.840;4.386;2022-09-01T13:51:34;25.40;49.40
39675;DHT22;27790;50.840;4.386;2022-09-01T13:54:01;25.50;50.20
39675;DHT22;27790;50.840;4.386;2022-09-01T13:56:27;25.50;50.60
39675;DHT22;27790;50.840;4.386;2022-09-01T13:58:53;25.60;50.30
39675;DHT22;27790;50.840;4.386;2022-09-01T14:01:19;25.50;49.80
39675;DHT22;27790;50.840;4.386;2022-09-01T14:03:44;25.70;50.60
39675;DHT22;27790;50.840;4.386;2022-09-01T14:06:10;25.80;50.50
39675;DHT22;27790;50.840;4.386;2022-09-01T14:08:36;25.90;50.20
39675;DHT22;27790;50.840;4.386;2022-09-01T14:11:01;26.00;49.80
39675;DHT22;27790;50.840;4.386;2022-09-01T14:13:27;26.10;49.60
39675;DHT22;27790;50.840;4.386;2022-09-01T14:15:55;26.10;49.40
39675;DHT22;27790;50.840;4.386;2022-09-01T14:18:21;26.00;49.50
39675;DHT22;27790;50.840;4.386;2022-09-01T14:20:48;25.90;49.50
39675;DHT22;27790;50.840;4.386;2022-09-01T14:23:16;25.80;49.50
39675;DHT22;27790;50.840;4.386;2022-09-01T14:25:44;25.70;49.90
39675;DHT22;27790;50.840;4.386;2022-09-01T14:28:10;25.80;49.90
39675;DHT22;27790;50.840;4.386;2022-09-01T14:30:39;25.80;49.30
39675;DHT22;27790;50.840;4.386;2022-09-01T14:33:06;25.80;48.90
39675;DHT22;27790;50.840;4.386;2022-09-01T14:35:32;25.80;49.10
39675;DHT22;27790;50.840;4.386;2022-09-01T14:37:58;25.80;49.30
39675;DHT22;27790;50.840;4.386;2022-09-01T14:40:25;25.90;49.20
39675;DHT22;27790;50.840;4.386;2022-09-01T14:42:53;25.90;49.00
39675;DHT22;27790;50.840;4.386;2022-09-01T14:45:21;25.90;48.90
39675;DHT22;27790;50.840;4.386;2022-09-01T14:47:49;25.90;49.10
39675;DHT22;27790;50.840;4.386;2022-09-01T14:50:16;25.90;49.00
39675;DHT22;27790;50.840;4.386;2022-09-01T14:52:45;25.80;48.90
39675;DHT22;27790;50.840;4.386;2022-09-01T14:55:11;25.80;49.20
39675;DHT22;27790;50.840;4.386;2022-09-01T14:57:37;25.80;49.00
39675;DHT22;27790;50.840;4.386;2022-09-01T15:00:08;25.80;48.70
39675;DHT22;27790;50.840;4.386;2022-09-01T15:02:35;25.80;48.70
39675;DHT22;27790;50.840;4.386;2022-09-01T15:05:01;25.70;48.70
39675;DHT22;27790;50.840;4.386;2022-09-01T15:07:27;25.70;49.40
39675;DHT22;27790;50.840;4.386;2022-09-01T15:09:52;25.50;48.40
39675;DHT22;27790;50.840;4.386;2022-09-01T15:12:18;25.40;48.90
39675;DHT22;27790;50.840;4.386;2022-09-01T15:14:44;25.20;49.10
39675;DHT22;27790;50.840;4.386;2022-09-01T15:17:10;25.10;49.40
39675;DHT22;27790;50.840;4.386;2022-09-01T15:19:35;25.10;49.10
39675;DHT22;27790;50.840;4.386;2022-09-01T15:22:01;25.20;49.00
39675;DHT22;27790;50.840;4.386;2022-09-01T15:24:26;25.30;48.50
39675;DHT22;27790;50.840;4.386;2022-09-01T15:26:52;25.40;48.60
39675;DHT22;27790;50.840;4.386;2022-09-01T15:29:18;25.40;48.30
39675;DHT22;27790;50.840;4.386;2022-09-01T15:31:44;25.40;48.00
39675;DHT22;27790;50.840;4.386;2022-09-01T15:34:10;25.20;47.90
39675;DHT22;27790;50.840;4.386;2022-09-01T15:36:39;25.20;48.10
39675;DHT22;27790;50.840;4.386;2022-09-01T15:39:06;25.20;48.10
39675;DHT22;27790;50.840;4.386;2022-09-01T15:41:32;25.30;48.10
39675;DHT22;27790;50.840;4.386;2022-09-01T15:44:01;25.50;48.10
39675;DHT22;27790;50.840;4.386;2022-09-01T15:46:26;25.70;46.60
39675;DHT22;27790;50.840;4.386;2022-09-01T15:48:57;25.70;47.00
39675;DHT22;27790;50.840;4.386;2022-09-01T15:51:31;25.70;46.90
39675;DHT22;27790;50.840;4.386;2022-09-01T15:54:00;25.80;46.50
39675;DHT22;27790;50.840;4.386;2022-09-01T15:56:26;25.70;46.30
39675;DHT22;27790;50.840;4.386;2022-09-01T15:58:52;25.70;46.40
39675;DHT22;27790;50.840;4.386;2022-09-01T16:01:18;25.70;46.30
39675;DHT22;27790;50.840;4.386;2022-09-01T16:03:46;25.60;46.20
39675;DHT22;27790;50.840;4.386;2022-09-01T16:06:12;25.60;46.20
39675;DHT22;27790;50.840;4.386;2022-09-01T16:08:39;25.60;46.40
39675;DHT22;27790;50.840;4.386;2022-09-01T16:11:07;25.60;46.50
39675;DHT22;27790;50.840;4.386;2022-09-01T16:13:39;25.60;46.10
39675;DHT22;27790;50.840;4.386;2022-09-01T16:16:18;25.80;46.10
39675;DHT22;27790;50.840;4.386;2022-09-01T16:18:57;25.80;45.60
39675;DHT22;27790;50.840;4.386;2022-09-01T16:23:54;25.70;45.80
39675;DHT22;27790;50.840;4.386;2022-09-01T16:26:21;25.60;45.70
39675;DHT22;27790;50.840;4.386;2022-09-01T16:28:51;25.50;45.60
39675;DHT22;27790;50.840;4.386;2022-09-01T16:31:27;25.60;45.60
39675;DHT22;27790;50.840;4.386;2022-09-01T16:33:55;25.50;45.60
39675;DHT22;27790;50.840;4.386;2022-09-01T16:39:27;25.40;45.90
39675;DHT22;27790;50.840;4.386;2022-09-01T16:58:24;25.10;46.70
39675;DHT22;27790;50.840;4.386;2022-09-01T17:06:33;25.10;46.90
39675;DHT22;27790;50.840;4.386;2022-09-01T17:09:18;25.10;46.90
39675;DHT22;27790;50.840;4.386;2022-09-01T17:11:51;25.00;47.00
39675;DHT22;27790;50.840;4.386;2022-09-01T17:14:25;25.00;47.00
39675;DHT22;27790;50.840;4.386;2022-09-01T17:17:04;25.00;46.90
39675;DHT22;27790;50.840;4.386;2022-09-01T17:19:31;25.10;46.70
39675;DHT22;27790;50.840;4.386;2022-09-01T17:22:09;25.00;46.50
39675;DHT22;27790;50.840;4.386;2022-09-01T17:27:11;24.90;47.00
39675;DHT22;27790;50.840;4.386;2022-09-01T17:29:47;24.90;47.20
39675;DHT22;27790;50.840;4.386;2022-09-01T17:40:27;24.80;47.50
39675;DHT22;27790;50.840;4.386;2022-09-01T17:43:06;24.80;47.70